KPBG/PBG METAR and TAF weather

Enter ICAO airport designator
Station Type Date Time Source
KPBG METAR 2020/01/23 05:53 UTC NOAA

KPBG 230553Z AUTO 00000KT 10SM CLR M07/M08 A3028 RMK AO2 SLP259 I1000 I6000 T10721083 11022 21083 58003


Station Type Date Time Source
KPBG Decoded METAR 2020/01/23 05:53 UTC NOAA

PLATTSBURGH INTERNATIONAL AIRPORT, NY, United States (KPBG) 44-39N 073-28W
Jan 23, 2020 - 12:53 AM EST / 2020.01.23 0553 UTC
Wind: Calm:0
Visibility: 10 mile(s):0
Sky conditions: clear
Temperature: 19.0 F (-7.2 C)
Dew Point: 17.1 F (-8.3 C)
Relative Humidity: 91%
Pressure (altimeter): 30.28 in. Hg (1025 hPa)
Pressure tendency: 0.01 inches (0.3 hPa) lower than three hours ago
ob: KPBG 230553Z AUTO 00000KT 10SM CLR M07/M08 A3028 RMK AO2 SLP259 I1000 I6000 T10721083 11022 21083 58003
cycle: 6

Station Type Date Time Source
KPBG TAF 2020/01/23 06:24 UTC NOAA

TAF KPBG 230520Z 2306/2406 00000KT P6SM SCT200
FM231700 14005KT P6SM BKN200

Example: see airport list